sensor_id;sensor_type;location;lat;lon;timestamp;pressure;altitude;pressure_sealevel;temperature;humidity
6389;BME280;3227;42.654;23.360;2023-11-21T00:00:26;94247.50;;;7.57;75.46
6389;BME280;3227;42.654;23.360;2023-11-21T00:02:53;94261.97;;;7.64;75.99
6389;BME280;3227;42.654;23.360;2023-11-21T00:05:21;94220.16;;;7.42;75.75
6389;BME280;3227;42.654;23.360;2023-11-21T00:07:48;94257.72;;;7.64;75.36
6389;BME280;3227;42.654;23.360;2023-11-21T00:10:16;94261.13;;;7.67;75.75
6389;BME280;3227;42.654;23.360;2023-11-21T00:12:43;94264.50;;;7.62;75.95
6389;BME280;3227;42.654;23.360;2023-11-21T00:15:10;94249.16;;;7.55;76.03
6389;BME280;3227;42.654;23.360;2023-11-21T00:17:41;94195.41;;;7.23;76.13
6389;BME280;3227;42.654;23.360;2023-11-21T00:20:08;94262.75;;;7.55;75.98
6389;BME280;3227;42.654;23.360;2023-11-21T00:22:39;94248.28;;;7.48;76.77
6389;BME280;3227;42.654;23.360;2023-11-21T00:25:07;94260.19;;;7.49;77.28
6389;BME280;3227;42.654;23.360;2023-11-21T00:27:34;94255.00;;;7.42;77.57
6389;BME280;3227;42.654;23.360;2023-11-21T00:30:01;94258.34;;;7.33;78.16
6389;BME280;3227;42.654;23.360;2023-11-21T00:32:30;94254.94;;;7.30;78.47
6389;BME280;3227;42.654;23.360;2023-11-21T00:34:57;94260.94;;;7.42;77.95
6389;BME280;3227;42.654;23.360;2023-11-21T00:37:24;94247.41;;;7.46;77.79
6389;BME280;3227;42.654;23.360;2023-11-21T00:39:53;94245.66;;;7.42;77.59
6389;BME280;3227;42.654;23.360;2023-11-21T00:42:19;94212.28;;;7.09;78.84
6389;BME280;3227;42.654;23.360;2023-11-21T00:44:47;94252.34;;;7.28;78.97
6389;BME280;3227;42.654;23.360;2023-11-21T00:47:13;94251.50;;;7.24;79.66
6389;BME280;3227;42.654;23.360;2023-11-21T00:49:40;94248.91;;;7.20;79.53
6389;BME280;3227;42.654;23.360;2023-11-21T00:52:07;94260.84;;;7.27;79.52
6389;BME280;3227;42.654;23.360;2023-11-21T00:54:33;94259.13;;;7.26;79.05
6389;BME280;3227;42.654;23.360;2023-11-21T00:57:03;94205.34;;;6.93;79.11
6389;BME280;3227;42.654;23.360;2023-11-21T00:59:29;94249.03;;;7.38;78.92
6389;BME280;3227;42.654;23.360;2023-11-21T01:01:56;94237.13;;;7.37;78.90
6389;BME280;3227;42.654;23.360;2023-11-21T01:04:25;94245.66;;;7.42;79.21
6389;BME280;3227;42.654;23.360;2023-11-21T01:06:52;94238.88;;;7.43;79.38
6389;BME280;3227;42.654;23.360;2023-11-21T01:09:19;94241.41;;;7.43;79.42
6389;BME280;3227;42.654;23.360;2023-11-21T01:11:46;94243.09;;;7.42;79.49
6389;BME280;3227;42.654;23.360;2023-11-21T01:14:14;94221.81;;;7.34;79.79
6389;BME280;3227;42.654;23.360;2023-11-21T01:16:43;94233.75;;;7.41;79.76
6389;BME280;3227;42.654;23.360;2023-11-21T01:19:09;94232.03;;;7.37;79.89
6389;BME280;3227;42.654;23.360;2023-11-21T01:21:36;94167.09;;;6.82;80.55
6389;BME280;3227;42.654;23.360;2023-11-21T01:24:04;94246.41;;;7.29;80.36
6389;BME280;3227;42.654;23.360;2023-11-21T01:26:32;94246.34;;;7.20;80.31
6389;BME280;3227;42.654;23.360;2023-11-21T01:28:59;94247.22;;;7.25;80.16
6389;BME280;3227;42.654;23.360;2023-11-21T01:31:27;94239.53;;;7.19;80.09
6389;BME280;3227;42.654;23.360;2023-11-21T01:33:55;94238.63;;;7.11;80.43
6389;BME280;3227;42.654;23.360;2023-11-21T01:36:22;94234.34;;;7.08;80.59
6389;BME280;3227;42.654;23.360;2023-11-21T01:38:48;94230.09;;;7.04;81.02
6389;BME280;3227;42.654;23.360;2023-11-21T01:41:15;94216.38;;;6.88;81.46
6389;BME280;3227;42.654;23.360;2023-11-21T01:43:42;94240.13;;;6.87;81.27
6389;BME280;3227;42.654;23.360;2023-11-21T01:46:09;94247.63;;;6.75;82.12
6389;BME280;3227;42.654;23.360;2023-11-21T01:48:38;94234.84;;;6.66;83.29
6389;BME280;3227;42.654;23.360;2023-11-21T01:51:05;94244.28;;;6.79;82.51
6389;BME280;3227;42.654;23.360;2023-11-21T01:53:32;94229.84;;;6.78;82.68
6389;BME280;3227;42.654;23.360;2023-11-21T01:55:59;94170.97;;;6.45;82.37
6389;BME280;3227;42.654;23.360;2023-11-21T01:58:26;94225.63;;;6.79;81.78
6389;BME280;3227;42.654;23.360;2023-11-21T02:00:53;94236.59;;;6.73;81.78
6389;BME280;3227;42.654;23.360;2023-11-21T02:03:20;94239.69;;;6.42;84.28
6389;BME280;3227;42.654;23.360;2023-11-21T02:05:48;94229.50;;;6.45;84.93
6389;BME280;3227;42.654;23.360;2023-11-21T02:08:15;94225.19;;;6.36;84.79
6389;BME280;3227;42.654;23.360;2023-11-21T02:10:42;94202.97;;;6.20;85.35
6389;BME280;3227;42.654;23.360;2023-11-21T02:13:08;94231.94;;;6.34;85.30
6389;BME280;3227;42.654;23.360;2023-11-21T02:15:36;94244.75;;;6.40;85.11
6389;BME280;3227;42.654;23.360;2023-11-21T02:18:04;94235.53;;;6.52;84.87
6389;BME280;3227;42.654;23.360;2023-11-21T02:20:31;94161.19;;;6.01;84.52
6389;BME280;3227;42.654;23.360;2023-11-21T02:23:01;94228.81;;;6.57;85.04
6389;BME280;3227;42.654;23.360;2023-11-21T02:25:29;94226.19;;;6.49;84.52
6389;BME280;3227;42.654;23.360;2023-11-21T02:27:56;94183.47;;;6.21;84.99
6389;BME280;3227;42.654;23.360;2023-11-21T02:30:23;94175.84;;;6.22;84.98
6389;BME280;3227;42.654;23.360;2023-11-21T02:32:53;94199.81;;;6.41;84.74
6389;BME280;3227;42.654;23.360;2023-11-21T02:35:20;94225.44;;;6.61;83.98
6389;BME280;3227;42.654;23.360;2023-11-21T02:37:47;94221.25;;;6.67;83.77
6389;BME280;3227;42.654;23.360;2023-11-21T02:40:16;94224.72;;;6.75;83.12
6389;BME280;3227;42.654;23.360;2023-11-21T02:42:43;94223.94;;;6.81;82.58
6389;BME280;3227;42.654;23.360;2023-11-21T02:45:10;94223.06;;;6.77;82.71
6389;BME280;3227;42.654;23.360;2023-11-21T02:47:38;94216.06;;;6.55;82.42
6389;BME280;3227;42.654;23.360;2023-11-21T02:50:05;94231.34;;;6.57;83.48
6389;BME280;3227;42.654;23.360;2023-11-21T02:52:33;94226.94;;;6.40;83.74
6389;BME280;3227;42.654;23.360;2023-11-21T02:55:00;94230.25;;;6.33;83.71
6389;BME280;3227;42.654;23.360;2023-11-21T02:57:28;94224.28;;;6.30;84.26
6389;BME280;3227;42.654;23.360;2023-11-21T02:59:55;94228.53;;;6.32;84.93
6389;BME280;3227;42.654;23.360;2023-11-21T03:02:22;94231.97;;;6.36;84.86
6389;BME280;3227;42.654;23.360;2023-11-21T03:04:49;94218.50;;;6.46;85.01
6389;BME280;3227;42.654;23.360;2023-11-21T03:07:16;94205.72;;;6.43;84.81
6389;BME280;3227;42.654;23.360;2023-11-21T03:09:44;94215.16;;;6.48;84.44
6389;BME280;3227;42.654;23.360;2023-11-21T03:12:11;94221.09;;;6.52;83.70
6389;BME280;3227;42.654;23.360;2023-11-21T03:14:40;94214.31;;;6.53;83.74
6389;BME280;3227;42.654;23.360;2023-11-21T03:17:07;94180.13;;;6.28;83.73
6389;BME280;3227;42.654;23.360;2023-11-21T03:19:33;94200.66;;;6.43;83.91
6389;BME280;3227;42.654;23.360;2023-11-21T03:22:00;94216.91;;;6.56;82.91
6389;BME280;3227;42.654;23.360;2023-11-21T03:24:27;94238.06;;;6.50;82.71
6389;BME280;3227;42.654;23.360;2023-11-21T03:26:54;94235.41;;;6.39;83.17
6389;BME280;3227;42.654;23.360;2023-11-21T03:29:20;94231.06;;;6.31;83.82
6389;BME280;3227;42.654;23.360;2023-11-21T03:31:48;94231.88;;;6.28;83.92
6389;BME280;3227;42.654;23.360;2023-11-21T03:34:23;94238.69;;;6.31;84.74
6389;BME280;3227;42.654;23.360;2023-11-21T03:36:51;94237.91;;;6.36;83.91
6389;BME280;3227;42.654;23.360;2023-11-21T03:39:18;94231.13;;;6.34;83.68
6389;BME280;3227;42.654;23.360;2023-11-21T03:41:45;94104.72;;;5.56;83.92
6389;BME280;3227;42.654;23.360;2023-11-21T03:44:12;94231.94;;;6.34;83.85
6389;BME280;3227;42.654;23.360;2023-11-21T03:46:39;94241.25;;;6.31;84.04
6389;BME280;3227;42.654;23.360;2023-11-21T03:49:07;94215.81;;;6.31;84.01
6389;BME280;3227;42.654;23.360;2023-11-21T03:51:34;94212.53;;;6.41;83.86
6389;BME280;3227;42.654;23.360;2023-11-21T03:54:01;94211.63;;;6.37;84.03
6389;BME280;3227;42.654;23.360;2023-11-21T03:56:27;94174.09;;;6.18;84.20
6389;BME280;3227;42.654;23.360;2023-11-21T03:58:55;94210.81;;;6.43;83.50
6389;BME280;3227;42.654;23.360;2023-11-21T04:01:22;94212.53;;;6.44;84.14
6389;BME280;3227;42.654;23.360;2023-11-21T04:03:49;94214.31;;;6.51;83.62
6389;BME280;3227;42.654;23.360;2023-11-21T04:06:17;94200.75;;;6.54;83.34
6389;BME280;3227;42.654;23.360;2023-11-21T04:08:44;94200.78;;;6.55;82.75
6389;BME280;3227;42.654;23.360;2023-11-21T04:11:11;94197.34;;;6.53;82.38
6389;BME280;3227;42.654;23.360;2023-11-21T04:13:38;94199.13;;;6.57;82.68
6389;BME280;3227;42.654;23.360;2023-11-21T04:16:05;94205.91;;;6.58;82.53
6389;BME280;3227;42.654;23.360;2023-11-21T04:18:33;94141.22;;;6.38;82.63
6389;BME280;3227;42.654;23.360;2023-11-21T04:21:00;94200.03;;;6.64;82.99
6389;BME280;3227;42.654;23.360;2023-11-21T04:23:29;94205.88;;;6.55;83.07
6389;BME280;3227;42.654;23.360;2023-11-21T04:25:57;94193.97;;;6.54;83.02
6389;BME280;3227;42.654;23.360;2023-11-21T04:28:24;94180.28;;;6.40;84.37
6389;BME280;3227;42.654;23.360;2023-11-21T04:30:51;94138.28;;;5.98;84.33
6389;BME280;3227;42.654;23.360;2023-11-21T04:33:17;94205.88;;;6.55;84.11
6389;BME280;3227;42.654;23.360;2023-11-21T04:35:44;94204.22;;;6.59;83.62
6389;BME280;3227;42.654;23.360;2023-11-21T04:38:11;94204.25;;;6.63;83.32
6389;BME280;3227;42.654;23.360;2023-11-21T04:40:39;94193.25;;;6.67;83.13
6389;BME280;3227;42.654;23.360;2023-11-21T04:43:06;94194.94;;;6.65;82.98
6389;BME280;3227;42.654;23.360;2023-11-21T04:45:33;94200.84;;;6.63;83.03
6389;BME280;3227;42.654;23.360;2023-11-21T04:48:00;94202.59;;;6.68;83.04
6389;BME280;3227;42.654;23.360;2023-11-21T04:50:26;94172.69;;;6.44;82.90
6389;BME280;3227;42.654;23.360;2023-11-21T04:52:53;94163.16;;;6.24;83.36
6389;BME280;3227;42.654;23.360;2023-11-21T04:55:20;94209.22;;;6.49;83.83
6389;BME280;3227;42.654;23.360;2023-11-21T04:57:48;94207.53;;;6.50;84.00
6389;BME280;3227;42.654;23.360;2023-11-21T05:00:15;94175.09;;;6.31;83.94
6389;BME280;3227;42.654;23.360;2023-11-21T05:02:42;94170.78;;;6.27;84.03
6389;BME280;3227;42.654;23.360;2023-11-21T05:05:09;94214.28;;;6.48;84.21
6389;BME280;3227;42.654;23.360;2023-11-21T05:07:36;94205.72;;;6.40;84.37
6389;BME280;3227;42.654;23.360;2023-11-21T05:10:04;94196.34;;;6.36;84.37
6389;BME280;3227;42.654;23.360;2023-11-21T05:12:34;94129.00;;;6.00;83.97
6389;BME280;3227;42.654;23.360;2023-11-21T05:15:04;94198.28;;;6.58;83.60
6389;BME280;3227;42.654;23.360;2023-11-21T05:17:35;94190.59;;;6.55;83.98
6389;BME280;3227;42.654;23.360;2023-11-21T05:20:03;94199.16;;;6.63;84.02
6389;BME280;3227;42.654;23.360;2023-11-21T05:22:33;94186.31;;;6.49;83.97
6389;BME280;3227;42.654;23.360;2023-11-21T05:25:00;94182.94;;;6.52;83.54
6389;BME280;3227;42.654;23.360;2023-11-21T05:27:28;94191.44;;;6.54;83.87
6389;BME280;3227;42.654;23.360;2023-11-21T05:29:56;94198.22;;;6.54;84.22
6389;BME280;3227;42.654;23.360;2023-11-21T05:32:24;94206.78;;;6.59;84.38
6389;BME280;3227;42.654;23.360;2023-11-21T05:34:52;94203.56;;;6.81;85.01
6389;BME280;3227;42.654;23.360;2023-11-21T05:37:19;94211.28;;;6.88;83.92
6389;BME280;3227;42.654;23.360;2023-11-21T05:39:45;94213.00;;;6.93;83.15
6389;BME280;3227;42.654;23.360;2023-11-21T05:42:12;94207.91;;;6.93;82.87
6389;BME280;3227;42.654;23.360;2023-11-21T05:44:41;94213.91;;;7.01;82.94
6389;BME280;3227;42.654;23.360;2023-11-21T05:47:08;94214.88;;;7.13;82.60
6389;BME280;3227;42.654;23.360;2023-11-21T05:49:37;94211.53;;;7.25;81.83
6389;BME280;3227;42.654;23.360;2023-11-21T05:52:04;94182.53;;;7.05;82.27
6389;BME280;3227;42.654;23.360;2023-11-21T05:54:31;94208.97;;;7.16;82.47
6389;BME280;3227;42.654;23.360;2023-11-21T05:56:59;94207.19;;;7.07;82.66
6389;BME280;3227;42.654;23.360;2023-11-21T05:59:26;94210.59;;;7.08;82.76
6389;BME280;3227;42.654;23.360;2023-11-21T06:01:53;94191.84;;;7.01;82.67
6389;BME280;3227;42.654;23.360;2023-11-21T06:04:20;94209.88;;;7.24;82.06
6389;BME280;3227;42.654;23.360;2023-11-21T06:06:51;94111.69;;;6.54;82.19
6389;BME280;3227;42.654;23.360;2023-11-21T06:09:19;94197.91;;;7.14;82.59
6389;BME280;3227;42.654;23.360;2023-11-21T06:11:47;94214.06;;;7.19;82.39
6389;BME280;3227;42.654;23.360;2023-11-21T06:14:14;94160.41;;;6.98;81.74
6389;BME280;3227;42.654;23.360;2023-11-21T06:16:53;94216.66;;;7.22;81.33
6389;BME280;3227;42.654;23.360;2023-11-21T06:19:21;94217.38;;;7.07;81.50
6389;BME280;3227;42.654;23.360;2023-11-21T06:21:48;94227.50;;;6.98;82.73
6389;BME280;3227;42.654;23.360;2023-11-21T06:24:17;94230.97;;;7.08;82.74
6389;BME280;3227;42.654;23.360;2023-11-21T06:26:46;94226.78;;;7.16;81.99
6389;BME280;3227;42.654;23.360;2023-11-21T06:29:13;94226.78;;;7.17;82.17
6389;BME280;3227;42.654;23.360;2023-11-21T06:31:41;94236.41;;;6.54;84.26
6389;BME280;3227;42.654;23.360;2023-11-21T06:34:09;94238.81;;;6.43;86.98
6389;BME280;3227;42.654;23.360;2023-11-21T06:36:36;94229.16;;;6.95;84.76
6389;BME280;3227;42.654;23.360;2023-11-21T06:39:02;94213.19;;;7.14;83.33
6389;BME280;3227;42.654;23.360;2023-11-21T06:41:33;94243.16;;;7.47;83.22
6389;BME280;3227;42.654;23.360;2023-11-21T06:44:00;94243.31;;;7.71;81.28
6389;BME280;3227;42.654;23.360;2023-11-21T06:46:28;94239.13;;;7.81;80.21
6389;BME280;3227;42.654;23.360;2023-11-21T06:48:55;94239.09;;;7.76;80.38
6389;BME280;3227;42.654;23.360;2023-11-21T06:51:22;94249.31;;;7.84;80.11
6389;BME280;3227;42.654;23.360;2023-11-21T06:53:50;94195.63;;;7.58;80.05
6389;BME280;3227;42.654;23.360;2023-11-21T06:56:18;94155.66;;;7.52;79.71
6389;BME280;3227;42.654;23.360;2023-11-21T06:58:46;94252.94;;;8.25;79.51
6389;BME280;3227;42.654;23.360;2023-11-21T07:01:16;94255.59;;;8.50;79.03
6389;BME280;3227;42.654;23.360;2023-11-21T07:03:43;94197.75;;;8.50;77.68
6389;BME280;3227;42.654;23.360;2023-11-21T07:06:10;94223.34;;;8.93;75.96
6389;BME280;3227;42.654;23.360;2023-11-21T07:08:37;94226.78;;;8.99;75.57
6389;BME280;3227;42.654;23.360;2023-11-21T07:11:04;94210.59;;;9.11;74.24
6389;BME280;3227;42.654;23.360;2023-11-21T07:13:31;94238.72;;;9.29;74.42
6389;BME280;3227;42.654;23.360;2023-11-21T07:15:59;94197.81;;;9.12;74.48
6389;BME280;3227;42.654;23.360;2023-11-21T07:18:26;94227.63;;;9.39;72.66
6389;BME280;3227;42.654;23.360;2023-11-21T07:20:53;94213.16;;;9.32;72.99
6389;BME280;3227;42.654;23.360;2023-11-21T07:23:20;94240.41;;;9.48;72.76
6389;BME280;3227;42.654;23.360;2023-11-21T07:25:48;94244.66;;;9.48;72.36
6389;BME280;3227;42.654;23.360;2023-11-21T07:28:15;94240.41;;;9.56;71.97
6389;BME280;3227;42.654;23.360;2023-11-21T07:30:42;93927.13;;;7.73;72.28
6389;BME280;3227;42.654;23.360;2023-11-21T07:33:10;94240.41;;;9.58;71.82
6389;BME280;3227;42.654;23.360;2023-11-21T07:35:36;94247.25;;;9.63;72.35
6389;BME280;3227;42.654;23.360;2023-11-21T07:38:03;94248.09;;;9.71;72.21
6389;BME280;3227;42.654;23.360;2023-11-21T07:40:30;94239.56;;;9.45;71.87
6389;BME280;3227;42.654;23.360;2023-11-21T07:42:57;94242.97;;;9.54;72.12
6389;BME280;3227;42.654;23.360;2023-11-21T07:45:25;94239.53;;;9.75;75.87
6389;BME280;3227;42.654;23.360;2023-11-21T07:47:53;94239.53;;;9.66;72.65
6389;BME280;3227;42.654;23.360;2023-11-21T07:50:21;94246.34;;;9.82;73.35
6389;BME280;3227;42.654;23.360;2023-11-21T07:52:48;94182.44;;;9.63;72.50
6389;BME280;3227;42.654;23.360;2023-11-21T07:55:15;94239.47;;;10.12;72.55
6389;BME280;3227;42.654;23.360;2023-11-21T07:57:42;94237.72;;;10.17;71.44
6389;BME280;3227;42.654;23.360;2023-11-21T08:00:10;94181.50;;;9.92;72.76
6389;BME280;3227;42.654;23.360;2023-11-21T08:02:38;94230.00;;;10.32;72.00
6389;BME280;3227;42.654;23.360;2023-11-21T08:05:05;94228.28;;;10.39;70.47
6389;BME280;3227;42.654;23.360;2023-11-21T08:07:34;94224.91;;;10.27;69.82
6389;BME280;3227;42.654;23.360;2023-11-21T08:10:01;94214.72;;;10.12;69.59
6389;BME280;3227;42.654;23.360;2023-11-21T08:12:28;94211.28;;;10.21;71.21
6389;BME280;3227;42.654;23.360;2023-11-21T08:14:55;94204.41;;;10.37;73.00
6389;BME280;3227;42.654;23.360;2023-11-21T08:17:21;94221.44;;;10.41;70.96
6389;BME280;3227;42.654;23.360;2023-11-21T08:19:49;94212.91;;;10.43;72.74
6389;BME280;3227;42.654;23.360;2023-11-21T08:22:16;94207.69;;;10.55;71.08
6389;BME280;3227;42.654;23.360;2023-11-21T08:24:45;94224.72;;;10.70;70.74
6389;BME280;3227;42.654;23.360;2023-11-21T08:27:12;94221.16;;;10.89;71.08
6389;BME280;3227;42.654;23.360;2023-11-21T08:29:41;94214.28;;;10.97;70.65
6389;BME280;3227;42.654;23.360;2023-11-21T08:32:07;94207.38;;;11.05;69.65
6389;BME280;3227;42.654;23.360;2023-11-21T08:34:35;94216.72;;;11.17;69.96
6389;BME280;3227;42.654;23.360;2023-11-21T08:37:01;94217.38;;;11.42;71.37
6389;BME280;3227;42.654;23.360;2023-11-21T08:39:28;94211.25;;;11.60;70.82
6389;BME280;3227;42.654;23.360;2023-11-21T08:41:57;94209.63;;;11.45;68.05
6389;BME280;3227;42.654;23.360;2023-11-21T08:44:24;94218.25;;;11.39;69.40
6389;BME280;3227;42.654;23.360;2023-11-21T08:46:50;94210.53;;;11.39;73.33
6389;BME280;3227;42.654;23.360;2023-11-21T08:49:17;94206.25;;;11.44;72.15
6389;BME280;3227;42.654;23.360;2023-11-21T08:51:44;94215.72;;;11.36;70.83
6389;BME280;3227;42.654;23.360;2023-11-21T08:54:11;94210.63;;;11.29;67.92
6389;BME280;3227;42.654;23.360;2023-11-21T08:56:39;94210.06;;;10.89;68.58
6389;BME280;3227;42.654;23.360;2023-11-21T08:59:07;94206.69;;;10.85;69.55
6389;BME280;3227;42.654;23.360;2023-11-21T09:01:34;94192.97;;;10.91;67.84
6389;BME280;3227;42.654;23.360;2023-11-21T09:04:01;94196.34;;;10.96;68.80
6389;BME280;3227;42.654;23.360;2023-11-21T09:06:28;94184.28;;;11.12;67.72
6389;BME280;3227;42.654;23.360;2023-11-21T09:08:55;94167.22;;;11.07;67.85
6389;BME280;3227;42.654;23.360;2023-11-21T09:11:21;94166.25;;;11.21;67.18
6389;BME280;3227;42.654;23.360;2023-11-21T09:13:49;94141.66;;;10.95;67.05
6389;BME280;3227;42.654;23.360;2023-11-21T09:16:17;94145.19;;;10.85;69.01
6389;BME280;3227;42.654;23.360;2023-11-21T09:18:45;94150.44;;;10.62;70.28
6389;BME280;3227;42.654;23.360;2023-11-21T09:21:11;94150.88;;;9.71;74.42
6389;BME280;3227;42.654;23.360;2023-11-21T09:23:38;94142.25;;;9.93;74.30
6389;BME280;3227;42.654;23.360;2023-11-21T09:26:05;94138.03;;;9.77;75.92
6389;BME280;3227;42.654;23.360;2023-11-21T09:28:32;94130.22;;;10.11;73.61
6389;BME280;3227;42.654;23.360;2023-11-21T09:30:58;94132.00;;;9.93;75.07
6389;BME280;3227;42.654;23.360;2023-11-21T09:33:28;94117.44;;;10.05;74.19
6389;BME280;3227;42.654;23.360;2023-11-21T09:35:55;94102.19;;;9.80;75.89
6389;BME280;3227;42.654;23.360;2023-11-21T09:38:22;94093.66;;;9.83;75.09
6389;BME280;3227;42.654;23.360;2023-11-21T09:40:49;94096.44;;;9.13;78.49
6389;BME280;3227;42.654;23.360;2023-11-21T09:43:18;94098.13;;;9.28;78.36
6389;BME280;3227;42.654;23.360;2023-11-21T09:45:46;94083.69;;;8.78;80.90
6389;BME280;3227;42.654;23.360;2023-11-21T09:48:14;94076.03;;;8.70;81.93
6389;BME280;3227;42.654;23.360;2023-11-21T09:50:43;94079.41;;;9.13;80.09
6389;BME280;3227;42.654;23.360;2023-11-21T09:53:13;94079.19;;;9.76;77.51
6389;BME280;3227;42.654;23.360;2023-11-21T09:55:45;94063.63;;;10.14;74.82
6389;BME280;3227;42.654;23.360;2023-11-21T09:58:13;94053.53;;;9.92;75.55
6389;BME280;3227;42.654;23.360;2023-11-21T10:00:41;94043.19;;;10.12;76.28
6389;BME280;3227;42.654;23.360;2023-11-21T10:03:08;94032.81;;;10.35;74.93
6389;BME280;3227;42.654;23.360;2023-11-21T10:05:35;94040.44;;;10.41;73.83
6389;BME280;3227;42.654;23.360;2023-11-21T10:08:07;94039.47;;;10.56;73.70
6389;BME280;3227;42.654;23.360;2023-11-21T10:10:35;94037.41;;;10.99;72.52
6389;BME280;3227;42.654;23.360;2023-11-21T10:13:03;94032.03;;;11.23;70.82
6389;BME280;3227;42.654;23.360;2023-11-21T10:15:33;94039.31;;;11.60;70.18
6389;BME280;3227;42.654;23.360;2023-11-21T10:18:02;94034.66;;;11.92;68.06
6389;BME280;3227;42.654;23.360;2023-11-21T10:20:30;94028.44;;;12.08;67.09
6389;BME280;3227;42.654;23.360;2023-11-21T10:22:59;93951.81;;;11.79;66.15
6389;BME280;3227;42.654;23.360;2023-11-21T10:25:28;94023.72;;;12.38;66.31
6389;BME280;3227;42.654;23.360;2023-11-21T10:27:58;94015.31;;;12.28;64.63
6389;BME280;3227;42.654;23.360;2023-11-21T10:30:28;94013.19;;;11.96;65.79
6389;BME280;3227;42.654;23.360;2023-11-21T10:32:58;94017.88;;;11.62;66.78
6389;BME280;3227;42.654;23.360;2023-11-21T10:35:42;94008.91;;;11.26;66.81
6389;BME280;3227;42.654;23.360;2023-11-21T10:38:12;94013.38;;;11.09;69.48
6389;BME280;3227;42.654;23.360;2023-11-21T10:40:41;94007.72;;;11.55;67.63
6389;BME280;3227;42.654;23.360;2023-11-21T10:43:11;93992.09;;;11.71;67.77
6389;BME280;3227;42.654;23.360;2023-11-21T10:45:40;94004.72;;;11.93;66.25
6389;BME280;3227;42.654;23.360;2023-11-21T10:48:08;94002.78;;;12.07;67.01
6389;BME280;3227;42.654;23.360;2023-11-21T10:50:36;94005.22;;;12.17;66.33
6389;BME280;3227;42.654;23.360;2023-11-21T10:53:04;93999.47;;;12.00;65.75
6389;BME280;3227;42.654;23.360;2023-11-21T10:55:32;93998.66;;;11.95;66.59
6389;BME280;3227;42.654;23.360;2023-11-21T10:58:01;93987.72;;;11.84;66.18
6389;BME280;3227;42.654;23.360;2023-11-21T11:00:30;93957.97;;;11.65;65.63
6389;BME280;3227;42.654;23.360;2023-11-21T11:02:57;93980.97;;;11.75;65.01
6389;BME280;3227;42.654;23.360;2023-11-21T11:05:25;93974.16;;;11.70;64.98
6389;BME280;3227;42.654;23.360;2023-11-21T11:07:58;93934.34;;;11.41;65.83
6389;BME280;3227;42.654;23.360;2023-11-21T11:10:27;93980.31;;;11.60;65.82
6389;BME280;3227;42.654;23.360;2023-11-21T11:12:55;93968.22;;;11.68;65.80
6389;BME280;3227;42.654;23.360;2023-11-21T11:15:24;93973.06;;;11.92;66.27
6389;BME280;3227;42.654;23.360;2023-11-21T11:17:51;93940.66;;;11.82;65.75
6389;BME280;3227;42.654;23.360;2023-11-21T11:20:23;93967.44;;;12.23;65.12
6389;BME280;3227;42.654;23.360;2023-11-21T11:22:59;93895.97;;;11.95;66.36
6389;BME280;3227;42.654;23.360;2023-11-21T11:25:42;93952.44;;;11.95;64.36
6389;BME280;3227;42.654;23.360;2023-11-21T11:28:17;93935.31;;;11.97;63.21
6389;BME280;3227;42.654;23.360;2023-11-21T11:30:56;93940.13;;;11.57;67.10
6389;BME280;3227;42.654;23.360;2023-11-21T11:33:35;93941.72;;;11.67;66.46
6389;BME280;3227;42.654;23.360;2023-11-21T11:36:06;93940.41;;;12.00;65.65
6389;BME280;3227;42.654;23.360;2023-11-21T11:38:37;93941.25;;;12.01;64.15
6389;BME280;3227;42.654;23.360;2023-11-21T11:41:05;93934.47;;;11.97;65.01
6389;BME280;3227;42.654;23.360;2023-11-21T11:43:32;93924.22;;;11.95;65.25
6389;BME280;3227;42.654;23.360;2023-11-21T11:46:11;93928.47;;;11.96;64.39
6389;BME280;3227;42.654;23.360;2023-11-21T11:48:39;93934.59;;;11.88;65.74
6389;BME280;3227;42.654;23.360;2023-11-21T11:51:10;93942.25;;;11.92;66.56
6389;BME280;3227;42.654;23.360;2023-11-21T11:53:40;93920.00;;;11.91;66.84
6389;BME280;3227;42.654;23.360;2023-11-21T11:56:27;93917.31;;;12.00;66.07
6389;BME280;3227;42.654;23.360;2023-11-21T11:58:58;93947.84;;;12.17;66.82
6389;BME280;3227;42.654;23.360;2023-11-21T12:01:26;93924.00;;;12.09;67.34
6389;BME280;3227;42.654;23.360;2023-11-21T12:04:26;93938.38;;;12.19;68.10
6389;BME280;3227;42.654;23.360;2023-11-21T12:07:00;93929.22;;;12.03;67.08
6389;BME280;3227;42.654;23.360;2023-11-21T12:09:29;93946.63;;;11.84;67.96
6389;BME280;3227;42.654;23.360;2023-11-21T12:11:56;93939.38;;;11.51;67.68
6389;BME280;3227;42.654;23.360;2023-11-21T12:14:23;93779.34;;;10.30;70.96
6389;BME280;3227;42.654;23.360;2023-11-21T12:16:52;93905.97;;;10.85;72.04
6389;BME280;3227;42.654;23.360;2023-11-21T12:19:20;93939.78;;;11.16;74.33
6389;BME280;3227;42.654;23.360;2023-11-21T12:21:48;93901.50;;;11.03;76.30
6389;BME280;3227;42.654;23.360;2023-11-21T12:24:16;93941.84;;;11.57;77.84
6389;BME280;3227;42.654;23.360;2023-11-21T12:26:43;93905.38;;;11.36;74.67
6389;BME280;3227;42.654;23.360;2023-11-21T12:29:10;93924.28;;;11.28;74.23
6389;BME280;3227;42.654;23.360;2023-11-21T12:31:37;93870.28;;;10.70;75.52
6389;BME280;3227;42.654;23.360;2023-11-21T12:34:05;93937.44;;;10.97;76.60
6389;BME280;3227;42.654;23.360;2023-11-21T12:36:34;93933.28;;;10.87;78.44
6389;BME280;3227;42.654;23.360;2023-11-21T12:39:02;93876.56;;;10.41;76.46
6389;BME280;3227;42.654;23.360;2023-11-21T12:41:29;93940.19;;;10.81;78.47
6389;BME280;3227;42.654;23.360;2023-11-21T12:43:57;93932.19;;;11.10;79.86
6389;BME280;3227;42.654;23.360;2023-11-21T12:46:24;93922.59;;;11.25;79.77
6389;BME280;3227;42.654;23.360;2023-11-21T12:48:54;93920.78;;;11.33;78.38
6389;BME280;3227;42.654;23.360;2023-11-21T12:51:23;93925.84;;;11.38;76.75
6389;BME280;3227;42.654;23.360;2023-11-21T12:53:51;93932.56;;;11.45;77.63
6389;BME280;3227;42.654;23.360;2023-11-21T12:56:18;93914.59;;;11.48;76.36
6389;BME280;3227;42.654;23.360;2023-11-21T12:58:48;93896.06;;;11.28;75.71
6389;BME280;3227;42.654;23.360;2023-11-21T13:01:16;93902.22;;;11.13;75.40
6389;BME280;3227;42.654;23.360;2023-11-21T13:03:46;93864.94;;;10.88;75.43
6389;BME280;3227;42.654;23.360;2023-11-21T13:06:14;93868.13;;;11.05;76.74
6389;BME280;3227;42.654;23.360;2023-11-21T13:08:44;93886.69;;;11.25;76.02
6389;BME280;3227;42.654;23.360;2023-11-21T13:11:11;93889.13;;;11.34;76.45
6389;BME280;3227;42.654;23.360;2023-11-21T13:13:40;93901.09;;;11.34;76.34
6389;BME280;3227;42.654;23.360;2023-11-21T13:16:08;93878.13;;;11.28;78.72
6389;BME280;3227;42.654;23.360;2023-11-21T13:18:35;93891.41;;;11.54;77.53
6389;BME280;3227;42.654;23.360;2023-11-21T13:21:03;93840.78;;;11.07;76.71